sensor_id;sensor_type;location;lat;lon;timestamp;pressure;altitude;pressure_sealevel;temperature;humidity
3697;BME280;60662;48.810;8.872;2023-08-17T06:40:34;96731.47;;;18.94;100.00
3697;BME280;60662;48.810;8.872;2023-08-17T06:42:51;96740.84;;;19.09;100.00
3697;BME280;60662;48.810;8.872;2023-08-17T06:45:08;96738.22;;;19.21;100.00
3697;BME280;60662;48.810;8.872;2023-08-17T06:47:33;96740.38;;;19.16;100.00
3697;BME280;60662;48.810;8.872;2023-08-17T06:49:56;96742.94;;;19.17;100.00
3697;BME280;60662;48.810;8.872;2023-08-17T06:52:28;96746.06;;;19.34;100.00
3697;BME280;60662;48.810;8.872;2023-08-17T06:54:59;96745.66;;;19.27;100.00
3697;BME280;60662;48.810;8.872;2023-08-17T07:01:59;96735.06;;;19.50;100.00
3697;BME280;60662;48.810;8.872;2023-08-17T07:03:01;96739.25;;;19.75;100.00
3697;BME280;60662;48.810;8.872;2023-08-17T07:04:02;96737.81;;;19.94;99.56
3697;BME280;60662;48.810;8.872;2023-08-17T07:06:33;96739.66;;;20.14;98.58
3697;BME280;60662;48.810;8.872;2023-08-17T07:07:35;96733.28;;;20.17;98.30
3697;BME280;60662;48.810;8.872;2023-08-17T07:08:37;96739.75;;;20.24;98.53
3697;BME280;60662;48.810;8.872;2023-08-17T07:09:38;96739.47;;;20.60;97.15
3697;BME280;60662;48.810;8.872;2023-08-17T07:10:40;96741.03;;;20.62;95.28
3697;BME280;60662;48.810;8.872;2023-08-17T07:11:41;96741.19;;;20.82;94.84
3697;BME280;60662;48.810;8.872;2023-08-17T07:12:43;96734.16;;;21.23;93.19
3697;BME280;60662;48.810;8.872;2023-08-17T07:13:44;96733.56;;;21.19;92.87
3697;BME280;60662;48.810;8.872;2023-08-17T07:14:46;96738.75;;;21.21;92.31
3697;BME280;60662;48.810;8.872;2023-08-17T07:15:47;96740.78;;;21.39;91.06
3697;BME280;60662;48.810;8.872;2023-08-17T07:16:48;96735.69;;;21.57;90.71
3697;BME280;60662;48.810;8.872;2023-08-17T07:17:50;96745.13;;;21.90;90.76
3697;BME280;60662;48.810;8.872;2023-08-17T07:18:51;96741.00;;;22.17;88.59
3697;BME280;60662;48.810;8.872;2023-08-17T07:19:53;96742.56;;;22.39;87.25
3697;BME280;60662;48.810;8.872;2023-08-17T07:21:14;96734.28;;;22.32;87.78
3697;BME280;60662;48.810;8.872;2023-08-17T07:22:15;96741.28;;;22.43;86.43
3697;BME280;60662;48.810;8.872;2023-08-17T07:23:17;96745.91;;;22.61;86.00
3697;BME280;60662;48.810;8.872;2023-08-17T07:24:19;96743.81;;;22.64;85.08
3697;BME280;60662;48.810;8.872;2023-08-17T07:25:20;96740.44;;;22.62;86.48
3697;BME280;60662;48.810;8.872;2023-08-17T07:26:22;96747.75;;;22.60;85.80
3697;BME280;60662;48.810;8.872;2023-08-17T07:27:24;96746.69;;;23.00;84.53
3697;BME280;60662;48.810;8.872;2023-08-17T07:28:26;96743.84;;;23.31;80.96
3697;BME280;60662;48.810;8.872;2023-08-17T07:29:28;96742.78;;;22.85;84.10
3697;BME280;60662;48.810;8.872;2023-08-17T07:30:29;96734.47;;;23.08;82.61
3697;BME280;60662;48.810;8.872;2023-08-17T07:31:31;96751.28;;;23.08;84.17
3697;BME280;60662;48.810;8.872;2023-08-17T07:32:34;96750.28;;;23.29;83.76
3697;BME280;60662;48.810;8.872;2023-08-17T07:33:36;96743.91;;;22.82;84.20
3697;BME280;60662;48.810;8.872;2023-08-17T07:34:38;96735.91;;;23.02;84.14
3697;BME280;60662;48.810;8.872;2023-08-17T07:35:39;96739.69;;;22.99;85.27
3697;BME280;60662;48.810;8.872;2023-08-17T07:36:41;96740.59;;;23.66;83.09
3697;BME280;60662;48.810;8.872;2023-08-17T07:37:42;96742.06;;;23.50;83.54
3697;BME280;60662;48.810;8.872;2023-08-17T07:38:53;96747.84;;;24.55;78.60
3697;BME280;60662;48.810;8.872;2023-08-17T07:39:54;96737.13;;;24.29;78.04
3697;BME280;60662;48.810;8.872;2023-08-17T07:40:56;96739.53;;;24.40;79.27
3697;BME280;60662;48.810;8.872;2023-08-17T07:41:58;96735.81;;;24.51;77.51
3697;BME280;60662;48.810;8.872;2023-08-17T07:43:00;96748.03;;;24.18;78.69
3697;BME280;60662;48.810;8.872;2023-08-17T07:44:03;96743.28;;;24.11;79.85
3697;BME280;60662;48.810;8.872;2023-08-17T07:45:04;96752.94;;;23.94;80.52
3697;BME280;60662;48.810;8.872;2023-08-17T07:46:08;96761.53;;;24.52;78.90
3697;BME280;60662;48.810;8.872;2023-08-17T07:47:10;96750.69;;;24.36;78.24
3697;BME280;60662;48.810;8.872;2023-08-17T07:48:11;96747.53;;;23.76;80.22
3697;BME280;60662;48.810;8.872;2023-08-17T07:49:13;96751.69;;;23.61;80.06
3697;BME280;60662;48.810;8.872;2023-08-17T07:50:26;96751.53;;;23.90;79.47
3697;BME280;60662;48.810;8.872;2023-08-17T07:51:28;96754.31;;;23.43;80.97
3697;BME280;60662;48.810;8.872;2023-08-17T07:52:32;96754.59;;;22.63;84.14
3697;BME280;60662;48.810;8.872;2023-08-17T07:53:34;96755.16;;;22.66;85.73
3697;BME280;60662;48.810;8.872;2023-08-17T07:54:35;96752.75;;;22.83;85.20
3697;BME280;60662;48.810;8.872;2023-08-17T07:55:37;96752.06;;;22.71;85.62
3697;BME280;60662;48.810;8.872;2023-08-17T07:56:38;96750.63;;;22.87;86.22
3697;BME280;60662;48.810;8.872;2023-08-17T07:57:40;96753.09;;;23.27;83.32
3697;BME280;60662;48.810;8.872;2023-08-17T07:58:42;96746.13;;;23.82;82.43
3697;BME280;60662;48.810;8.872;2023-08-17T07:59:44;96751.28;;;23.93;80.67
3697;BME280;60662;48.810;8.872;2023-08-17T08:00:45;96743.91;;;23.77;80.96
3697;BME280;60662;48.810;8.872;2023-08-17T08:01:47;96749.25;;;23.40;81.42
3697;BME280;60662;48.810;8.872;2023-08-17T08:02:48;96749.34;;;23.00;83.97
3697;BME280;60662;48.810;8.872;2023-08-17T08:03:50;96746.16;;;22.87;83.98
3697;BME280;60662;48.810;8.872;2023-08-17T08:04:51;96745.91;;;23.38;84.78
3697;BME280;60662;48.810;8.872;2023-08-17T08:05:53;96751.84;;;24.15;82.14
3697;BME280;60662;48.810;8.872;2023-08-17T08:06:54;96744.66;;;24.34;81.61
3697;BME280;60662;48.810;8.872;2023-08-17T08:07:56;96746.66;;;24.32;79.40
3697;BME280;60662;48.810;8.872;2023-08-17T08:08:57;96748.63;;;23.56;82.25
3697;BME280;60662;48.810;8.872;2023-08-17T08:09:59;96751.91;;;23.40;82.05
3697;BME280;60662;48.810;8.872;2023-08-17T08:11:00;96744.50;;;23.34;82.42
3697;BME280;60662;48.810;8.872;2023-08-17T08:12:02;96750.03;;;23.50;83.88
3697;BME280;60662;48.810;8.872;2023-08-17T08:13:04;96743.84;;;23.87;82.71
3697;BME280;60662;48.810;8.872;2023-08-17T08:14:06;96744.81;;;24.50;81.25
3697;BME280;60662;48.810;8.872;2023-08-17T08:15:07;96744.94;;;24.85;78.86
3697;BME280;60662;48.810;8.872;2023-08-17T08:16:09;96744.34;;;25.17;77.94
3697;BME280;60662;48.810;8.872;2023-08-17T08:17:10;96749.47;;;25.37;78.19
3697;BME280;60662;48.810;8.872;2023-08-17T08:18:12;96743.91;;;25.65;76.93
3697;BME280;60662;48.810;8.872;2023-08-17T08:19:13;96743.63;;;25.76;76.41
3697;BME280;60662;48.810;8.872;2023-08-17T08:20:15;96741.28;;;26.16;74.38
3697;BME280;60662;48.810;8.872;2023-08-17T08:21:16;96749.47;;;26.22;74.94
3697;BME280;60662;48.810;8.872;2023-08-17T08:22:18;96744.31;;;26.21;74.75
3697;BME280;60662;48.810;8.872;2023-08-17T08:23:19;96744.31;;;26.29;74.23
3697;BME280;60662;48.810;8.872;2023-08-17T08:24:21;96751.19;;;26.40;74.17
3697;BME280;60662;48.810;8.872;2023-08-17T08:25:37;96747.56;;;26.74;73.45
3697;BME280;60662;48.810;8.872;2023-08-17T08:26:39;96746.59;;;25.65;73.89
3697;BME280;60662;48.810;8.872;2023-08-17T08:27:40;96750.34;;;24.93;76.02
3697;BME280;60662;48.810;8.872;2023-08-17T08:28:42;96752.09;;;24.76;77.57
3697;BME280;60662;48.810;8.872;2023-08-17T08:29:44;96745.59;;;24.24;79.46
3697;BME280;60662;48.810;8.872;2023-08-17T08:30:45;96753.47;;;24.88;78.57
3697;BME280;60662;48.810;8.872;2023-08-17T08:31:47;96743.25;;;25.63;76.34
3697;BME280;60662;48.810;8.872;2023-08-17T08:32:48;96751.03;;;25.48;73.96
3697;BME280;60662;48.810;8.872;2023-08-17T08:33:50;96744.31;;;25.09;75.88
3697;BME280;60662;48.810;8.872;2023-08-17T08:34:53;96745.97;;;24.66;78.15
3697;BME280;60662;48.810;8.872;2023-08-17T08:35:54;96743.31;;;24.29;79.13
3697;BME280;60662;48.810;8.872;2023-08-17T08:36:56;96735.97;;;24.50;78.39
3697;BME280;60662;48.810;8.872;2023-08-17T08:37:58;96729.56;;;24.78;76.54
3697;BME280;60662;48.810;8.872;2023-08-17T08:39:00;96735.78;;;25.14;75.87
3697;BME280;60662;48.810;8.872;2023-08-17T08:40:02;96738.00;;;24.92;74.81
3697;BME280;60662;48.810;8.872;2023-08-17T08:41:03;96733.19;;;25.22;74.27
3697;BME280;60662;48.810;8.872;2023-08-17T08:42:05;96737.16;;;25.18;72.71
3697;BME280;60662;48.810;8.872;2023-08-17T08:43:07;96732.16;;;25.23;73.04
3697;BME280;60662;48.810;8.872;2023-08-17T08:44:10;96738.53;;;24.96;73.11
3697;BME280;60662;48.810;8.872;2023-08-17T08:45:12;96737.72;;;24.59;74.51
3697;BME280;60662;48.810;8.872;2023-08-17T08:46:16;96738.19;;;24.72;75.42
3697;BME280;60662;48.810;8.872;2023-08-17T08:47:18;96734.63;;;24.90;74.18
3697;BME280;60662;48.810;8.872;2023-08-17T08:48:21;96741.81;;;24.89;74.39
3697;BME280;60662;48.810;8.872;2023-08-17T08:49:24;96731.41;;;25.04;72.82
3697;BME280;60662;48.810;8.872;2023-08-17T08:50:28;96729.81;;;25.20;73.89
3697;BME280;60662;48.810;8.872;2023-08-17T08:51:35;96728.94;;;25.37;73.18
3697;BME280;60662;48.810;8.872;2023-08-17T08:52:42;96728.31;;;25.17;72.36
3697;BME280;60662;48.810;8.872;2023-08-17T08:53:47;96725.88;;;25.58;72.30
3697;BME280;60662;48.810;8.872;2023-08-17T08:54:57;96731.53;;;25.55;72.05
3697;BME280;60662;48.810;8.872;2023-08-17T08:56:00;96729.13;;;25.36;72.60
3697;BME280;60662;48.810;8.872;2023-08-17T08:57:04;96736.06;;;25.02;73.57
3697;BME280;60662;48.810;8.872;2023-08-17T08:58:07;96735.19;;;25.54;73.01
3697;BME280;60662;48.810;8.872;2023-08-17T08:59:10;96737.03;;;25.54;72.75
3697;BME280;60662;48.810;8.872;2023-08-17T09:00:12;96741.00;;;25.84;71.96
3697;BME280;60662;48.810;8.872;2023-08-17T09:01:14;96731.97;;;25.85;72.00
3697;BME280;60662;48.810;8.872;2023-08-17T09:02:17;96738.66;;;25.89;71.84
3697;BME280;60662;48.810;8.872;2023-08-17T09:03:19;96726.59;;;25.69;71.86
3697;BME280;60662;48.810;8.872;2023-08-17T09:04:25;96730.19;;;26.02;72.03
3697;BME280;60662;48.810;8.872;2023-08-17T09:05:26;96726.81;;;25.41;72.45
3697;BME280;60662;48.810;8.872;2023-08-17T09:06:32;96729.84;;;25.54;73.08
3697;BME280;60662;48.810;8.872;2023-08-17T09:07:34;96725.19;;;26.07;72.54
3697;BME280;60662;48.810;8.872;2023-08-17T09:08:36;96732.41;;;26.07;72.31
3697;BME280;60662;48.810;8.872;2023-08-17T09:09:38;96729.75;;;26.23;72.27
3697;BME280;60662;48.810;8.872;2023-08-17T09:10:40;96732.22;;;26.17;71.97
3697;BME280;60662;48.810;8.872;2023-08-17T09:11:42;96723.66;;;25.97;68.83
3697;BME280;60662;48.810;8.872;2023-08-17T09:12:46;96725.38;;;26.06;68.92
3697;BME280;60662;48.810;8.872;2023-08-17T09:13:50;96737.13;;;26.30;67.52
3697;BME280;60662;48.810;8.872;2023-08-17T09:14:54;96729.19;;;26.03;67.47
3697;BME280;60662;48.810;8.872;2023-08-17T09:15:58;96728.09;;;26.39;68.19
3697;BME280;60662;48.810;8.872;2023-08-17T09:17:07;96724.94;;;26.44;68.62
3697;BME280;60662;48.810;8.872;2023-08-17T09:18:09;96726.56;;;26.45;69.90
3697;BME280;60662;48.810;8.872;2023-08-17T09:19:14;96729.63;;;26.83;68.93
3697;BME280;60662;48.810;8.872;2023-08-17T09:20:39;96725.56;;;27.20;69.42
3697;BME280;60662;48.810;8.872;2023-08-17T09:21:46;96734.94;;;28.12;67.04
3697;BME280;60662;48.810;8.872;2023-08-17T09:22:51;96730.59;;;27.71;66.46
3697;BME280;60662;48.810;8.872;2023-08-17T09:23:55;96727.94;;;27.63;66.18
3697;BME280;60662;48.810;8.872;2023-08-17T09:25:00;96733.09;;;27.73;67.51
3697;BME280;60662;48.810;8.872;2023-08-17T09:26:10;96729.66;;;27.87;67.69
3697;BME280;60662;48.810;8.872;2023-08-17T09:27:12;96729.63;;;27.95;67.09
3697;BME280;60662;48.810;8.872;2023-08-17T09:28:17;96733.81;;;28.06;66.38
3697;BME280;60662;48.810;8.872;2023-08-17T09:29:20;96726.88;;;28.12;66.50
3697;BME280;60662;48.810;8.872;2023-08-17T09:30:22;96733.44;;;28.09;66.08
3697;BME280;60662;48.810;8.872;2023-08-17T09:31:24;96733.53;;;28.24;65.48
3697;BME280;60662;48.810;8.872;2023-08-17T09:32:30;96737.09;;;27.77;65.57
3697;BME280;60662;48.810;8.872;2023-08-17T09:33:32;96733.94;;;27.73;65.68
3697;BME280;60662;48.810;8.872;2023-08-17T09:34:34;96733.50;;;27.93;65.39
3697;BME280;60662;48.810;8.872;2023-08-17T09:35:35;96733.13;;;28.04;65.10
3697;BME280;60662;48.810;8.872;2023-08-17T09:36:37;96744.97;;;28.18;63.74
3697;BME280;60662;48.810;8.872;2023-08-17T09:37:38;96739.31;;;28.05;63.86
3697;BME280;60662;48.810;8.872;2023-08-17T09:38:40;96735.81;;;28.04;64.19
3697;BME280;60662;48.810;8.872;2023-08-17T09:39:42;96738.63;;;28.34;64.34
3697;BME280;60662;48.810;8.872;2023-08-17T09:40:43;96734.22;;;28.64;63.98
3697;BME280;60662;48.810;8.872;2023-08-17T09:41:45;96732.22;;;28.66;62.90
3697;BME280;60662;48.810;8.872;2023-08-17T09:42:46;96737.09;;;28.63;63.59
3697;BME280;60662;48.810;8.872;2023-08-17T09:43:48;96736.53;;;29.59;63.38
3697;BME280;60662;48.810;8.872;2023-08-17T09:44:49;96732.38;;;30.08;61.38
3697;BME280;60662;48.810;8.872;2023-08-17T09:45:54;96729.81;;;30.00;59.77
3697;BME280;60662;48.810;8.872;2023-08-17T09:46:55;96727.16;;;28.25;62.24
3697;BME280;60662;48.810;8.872;2023-08-17T09:48:01;96729.88;;;28.40;62.32
3697;BME280;60662;48.810;8.872;2023-08-17T09:49:05;96735.91;;;29.04;61.01
3697;BME280;60662;48.810;8.872;2023-08-17T09:50:07;96727.63;;;29.28;61.18
3697;BME280;60662;48.810;8.872;2023-08-17T09:51:09;96731.50;;;29.26;61.14
3697;BME280;60662;48.810;8.872;2023-08-17T09:52:10;96720.59;;;29.57;60.40
3697;BME280;60662;48.810;8.872;2023-08-17T09:53:17;96719.50;;;30.03;59.78
3697;BME280;60662;48.810;8.872;2023-08-17T09:54:21;96723.19;;;30.17;58.87
3697;BME280;60662;48.810;8.872;2023-08-17T09:55:24;96723.78;;;30.56;58.53
3697;BME280;60662;48.810;8.872;2023-08-17T09:56:27;96727.06;;;31.01;57.95
3697;BME280;60662;48.810;8.872;2023-08-17T09:57:29;96723.47;;;30.94;56.93
3697;BME280;60662;48.810;8.872;2023-08-17T09:58:30;96718.97;;;31.01;56.61
3697;BME280;60662;48.810;8.872;2023-08-17T09:59:32;96718.56;;;30.33;58.84
3697;BME280;60662;48.810;8.872;2023-08-17T10:00:44;96717.91;;;30.30;57.54
3697;BME280;60662;48.810;8.872;2023-08-17T10:01:51;96715.22;;;30.09;58.43
3697;BME280;60662;48.810;8.872;2023-08-17T10:02:57;96719.72;;;30.45;58.34
3697;BME280;60662;48.810;8.872;2023-08-17T10:04:08;96714.63;;;31.00;58.01
3697;BME280;60662;48.810;8.872;2023-08-17T10:05:16;96716.28;;;31.30;57.99
3697;BME280;60662;48.810;8.872;2023-08-17T10:06:26;96719.31;;;31.55;58.34
3697;BME280;60662;48.810;8.872;2023-08-17T10:07:30;96711.81;;;31.92;57.61
3697;BME280;60662;48.810;8.872;2023-08-17T10:08:56;96720.66;;;32.21;57.55
3697;BME280;60662;48.810;8.872;2023-08-17T10:10:04;96722.03;;;32.79;55.34
3697;BME280;60662;48.810;8.872;2023-08-17T10:11:06;96711.22;;;31.48;56.26
3697;BME280;60662;48.810;8.872;2023-08-17T10:12:15;96713.75;;;32.05;55.88
3697;BME280;60662;48.810;8.872;2023-08-17T10:14:29;96719.91;;;32.47;54.68
3697;BME280;60662;48.810;8.872;2023-08-17T10:15:44;96709.13;;;31.85;57.00
3697;BME280;60662;48.810;8.872;2023-08-17T10:16:50;96711.88;;;31.22;58.29
3697;BME280;60662;48.810;8.872;2023-08-17T10:19:05;96714.09;;;30.40;60.05
3697;BME280;60662;48.810;8.872;2023-08-17T10:20:09;96710.41;;;30.91;59.09
3697;BME280;60662;48.810;8.872;2023-08-17T10:21:23;96706.09;;;32.15;55.56
3697;BME280;60662;48.810;8.872;2023-08-17T10:22:39;96717.66;;;32.78;55.00
3697;BME280;60662;48.810;8.872;2023-08-17T10:23:46;96712.00;;;33.13;54.46
3697;BME280;60662;48.810;8.872;2023-08-17T10:24:49;96718.84;;;33.49;54.04
3697;BME280;60662;48.810;8.872;2023-08-17T10:25:50;96722.56;;;34.07;52.88
3697;BME280;60662;48.810;8.872;2023-08-17T10:26:52;96724.22;;;34.53;51.88
3697;BME280;60662;48.810;8.872;2023-08-17T10:27:55;96715.28;;;34.53;50.78
3697;BME280;60662;48.810;8.872;2023-08-17T10:29:01;96716.13;;;34.46;51.18
3697;BME280;60662;48.810;8.872;2023-08-17T10:30:13;96723.84;;;32.38;53.56
3697;BME280;60662;48.810;8.872;2023-08-17T10:31:14;96719.91;;;31.08;53.93
3697;BME280;60662;48.810;8.872;2023-08-17T10:32:16;96721.16;;;31.48;54.34
3697;BME280;60662;48.810;8.872;2023-08-17T10:33:18;96722.94;;;31.05;54.77
3697;BME280;60662;48.810;8.872;2023-08-17T10:34:20;96720.56;;;31.52;53.30
3697;BME280;60662;48.810;8.872;2023-08-17T10:35:22;96721.56;;;32.48;52.86
3697;BME280;60662;48.810;8.872;2023-08-17T10:36:24;96715.75;;;33.18;50.15
3697;BME280;60662;48.810;8.872;2023-08-17T10:37:26;96727.41;;;34.05;49.31
3697;BME280;60662;48.810;8.872;2023-08-17T10:38:28;96711.28;;;33.64;48.28
3697;BME280;60662;48.810;8.872;2023-08-17T10:39:30;96723.66;;;34.06;47.92
3697;BME280;60662;48.810;8.872;2023-08-17T10:40:36;96720.00;;;33.87;49.13
3697;BME280;60662;48.810;8.872;2023-08-17T10:41:46;96708.19;;;33.54;49.49
3697;BME280;60662;48.810;8.872;2023-08-17T10:42:54;96713.88;;;33.12;49.80
3697;BME280;60662;48.810;8.872;2023-08-17T10:43:57;96707.16;;;32.28;50.99
3697;BME280;60662;48.810;8.872;2023-08-17T10:44:59;96709.56;;;32.78;51.63
3697;BME280;60662;48.810;8.872;2023-08-17T10:46:15;96712.44;;;33.23;49.62
3697;BME280;60662;48.810;8.872;2023-08-17T10:47:25;96717.91;;;32.07;50.97
3697;BME280;60662;48.810;8.872;2023-08-17T10:48:27;96718.88;;;32.55;50.23
3697;BME280;60662;48.810;8.872;2023-08-17T10:49:29;96716.72;;;32.23;50.84
3697;BME280;60662;48.810;8.872;2023-08-17T10:50:31;96713.72;;;32.80;50.51
3697;BME280;60662;48.810;8.872;2023-08-17T10:51:34;96718.44;;;32.38;51.92
3697;BME280;60662;48.810;8.872;2023-08-17T10:52:36;96715.59;;;32.86;51.44
3697;BME280;60662;48.810;8.872;2023-08-17T10:53:42;96712.44;;;33.95;49.95
3697;BME280;60662;48.810;8.872;2023-08-17T10:54:44;96714.97;;;34.61;49.12
3697;BME280;60662;48.810;8.872;2023-08-17T10:55:46;96711.72;;;33.54;48.79
3697;BME280;60662;48.810;8.872;2023-08-17T10:56:53;96709.41;;;33.65;49.50
3697;BME280;60662;48.810;8.872;2023-08-17T10:57:55;96706.69;;;34.56;48.49
3697;BME280;60662;48.810;8.872;2023-08-17T10:59:00;96702.78;;;34.45;48.51
3697;BME280;60662;48.810;8.872;2023-08-17T11:00:18;96710.72;;;34.46;48.83
3697;BME280;60662;48.810;8.872;2023-08-17T11:01:35;96711.28;;;35.06;46.38
3697;BME280;60662;48.810;8.872;2023-08-17T11:02:37;96712.59;;;34.71;47.49
3697;BME280;60662;48.810;8.872;2023-08-17T11:03:41;96705.69;;;34.50;47.84
3697;BME280;60662;48.810;8.872;2023-08-17T11:04:50;96707.94;;;33.69;48.70
3697;BME280;60662;48.810;8.872;2023-08-17T11:05:53;96705.13;;;33.44;49.58
3697;BME280;60662;48.810;8.872;2023-08-17T11:07:02;96709.31;;;32.46;51.22
3697;BME280;60662;48.810;8.872;2023-08-17T11:08:06;96713.28;;;31.88;52.46
3697;BME280;60662;48.810;8.872;2023-08-17T11:09:08;96701.38;;;32.31;52.53
3697;BME280;60662;48.810;8.872;2023-08-17T11:11:23;96703.22;;;32.30;51.59
3697;BME280;60662;48.810;8.872;2023-08-17T11:12:25;96701.34;;;30.49;55.19
3697;BME280;60662;48.810;8.872;2023-08-17T11:13:32;96699.81;;;30.03;57.29
3697;BME280;60662;48.810;8.872;2023-08-17T11:14:34;96703.56;;;31.17;55.64
3697;BME280;60662;48.810;8.872;2023-08-17T11:15:38;96705.31;;;32.35;52.89
3697;BME280;60662;48.810;8.872;2023-08-17T11:16:39;96707.16;;;32.21;53.08
3697;BME280;60662;48.810;8.872;2023-08-17T11:17:41;96704.28;;;32.29;52.99
3697;BME280;60662;48.810;8.872;2023-08-17T11:18:43;96704.47;;;32.21;53.17
3697;BME280;60662;48.810;8.872;2023-08-17T11:19:45;96695.41;;;32.82;51.91
3697;BME280;60662;48.810;8.872;2023-08-17T11:20:47;96703.44;;;32.29;52.99
3697;BME280;60662;48.810;8.872;2023-08-17T11:21:51;96699.09;;;32.41;53.40
3697;BME280;60662;48.810;8.872;2023-08-17T11:22:52;96687.72;;;32.93;52.40
3697;BME280;60662;48.810;8.872;2023-08-17T11:23:58;96695.13;;;32.30;52.64
3697;BME280;60662;48.810;8.872;2023-08-17T11:25:00;96691.50;;;31.96;53.04
3697;BME280;60662;48.810;8.872;2023-08-17T11:26:02;96686.81;;;31.28;54.57
3697;BME280;60662;48.810;8.872;2023-08-17T11:27:04;96695.94;;;30.70;55.98
3697;BME280;60662;48.810;8.872;2023-08-17T11:28:08;96699.91;;;30.74;56.29
3697;BME280;60662;48.810;8.872;2023-08-17T11:29:10;96710.13;;;31.07;56.47
3697;BME280;60662;48.810;8.872;2023-08-17T11:30:12;96710.13;;;31.07;56.24
3697;BME280;60662;48.810;8.872;2023-08-17T11:31:15;96716.38;;;31.15;57.40
3697;BME280;60662;48.810;8.872;2023-08-17T11:32:19;96719.44;;;31.05;57.77
3697;BME280;60662;48.810;8.872;2023-08-17T11:33:21;96719.19;;;31.00;58.27
3697;BME280;60662;48.810;8.872;2023-08-17T11:34:22;96719.16;;;30.50;58.08
3697;BME280;60662;48.810;8.872;2023-08-17T11:35:24;96718.78;;;30.31;58.41
3697;BME280;60662;48.810;8.872;2023-08-17T11:36:25;96717.94;;;29.94;59.12
3697;BME280;60662;48.810;8.872;2023-08-17T11:37:27;96716.13;;;30.38;59.12
3697;BME280;60662;48.810;8.872;2023-08-17T11:39:34;96701.06;;;30.43;59.75
3697;BME280;60662;48.810;8.872;2023-08-17T11:40:35;96712.63;;;30.37;59.97
3697;BME280;60662;48.810;8.872;2023-08-17T11:41:37;96698.38;;;30.65;59.66
3697;BME280;60662;48.810;8.872;2023-08-17T11:42:39;96705.78;;;30.85;60.27
3697;BME280;60662;48.810;8.872;2023-08-17T11:43:40;96709.34;;;30.64;60.11
3697;BME280;60662;48.810;8.872;2023-08-17T11:44:41;96707.25;;;30.37;61.45
3697;BME280;60662;48.810;8.872;2023-08-17T11:45:43;96714.84;;;31.34;60.64
3697;BME280;60662;48.810;8.872;2023-08-17T11:46:45;96719.09;;;31.85;60.30
3697;BME280;60662;48.810;8.872;2023-08-17T11:47:48;96710.78;;;32.82;57.83
3697;BME280;60662;48.810;8.872;2023-08-17T11:48:49;96716.78;;;32.70;58.75
3697;BME280;60662;48.810;8.872;2023-08-17T11:50:05;96714.91;;;33.31;56.46
3697;BME280;60662;48.810;8.872;2023-08-17T11:51:31;96709.34;;;33.92;56.01
3697;BME280;60662;48.810;8.872;2023-08-17T11:52:32;96709.91;;;33.21;57.42
3697;BME280;60662;48.810;8.872;2023-08-17T11:53:37;96712.44;;;33.10;56.77
3697;BME280;60662;48.810;8.872;2023-08-17T11:54:41;96717.50;;;33.72;56.37
3697;BME280;60662;48.810;8.872;2023-08-17T11:55:43;96716.41;;;34.31;55.97
3697;BME280;60662;48.810;8.872;2023-08-17T11:56:45;96726.22;;;34.26;55.70
3697;BME280;60662;48.810;8.872;2023-08-17T11:57:46;96721.81;;;33.07;57.78
3697;BME280;60662;48.810;8.872;2023-08-17T11:58:48;96734.22;;;32.48;58.28
3697;BME280;60662;48.810;8.872;2023-08-17T11:59:56;96720.19;;;32.04;59.72
3697;BME280;60662;48.810;8.872;2023-08-17T12:00:58;96723.25;;;31.52;60.61
3697;BME280;60662;48.810;8.872;2023-08-17T12:02:00;96731.78;;;31.21;61.70
3697;BME280;60662;48.810;8.872;2023-08-17T12:03:02;96717.88;;;30.95;62.47
3697;BME280;60662;48.810;8.872;2023-08-17T12:04:05;96726.75;;;30.46;63.76
3697;BME280;60662;48.810;8.872;2023-08-17T12:05:07;96720.56;;;30.45;64.08
3697;BME280;60662;48.810;8.872;2023-08-17T12:06:09;96726.59;;;30.26;64.51
3697;BME280;60662;48.810;8.872;2023-08-17T12:07:11;96720.72;;;29.86;65.12
3697;BME280;60662;48.810;8.872;2023-08-17T12:08:13;96730.28;;;29.13;67.03
3697;BME280;60662;48.810;8.872;2023-08-17T12:09:16;96724.50;;;28.87;68.04
3697;BME280;60662;48.810;8.872;2023-08-17T12:10:18;96732.22;;;28.66;68.63
3697;BME280;60662;48.810;8.872;2023-08-17T12:11:23;96730.75;;;28.01;70.00
3697;BME280;60662;48.810;8.872;2023-08-17T12:12:28;96720.91;;;27.93;70.63
3697;BME280;60662;48.810;8.872;2023-08-17T12:13:34;96728.25;;;27.99;71.39
3697;BME280;60662;48.810;8.872;2023-08-17T12:14:36;96733.75;;;28.14;71.41
3697;BME280;60662;48.810;8.872;2023-08-17T12:15:37;96733.88;;;27.90;71.15
3697;BME280;60662;48.810;8.872;2023-08-17T12:16:46;96739.75;;;27.45;72.89
3697;BME280;60662;48.810;8.872;2023-08-17T13:30:07;96746.25;;;23.05;96.11
3697;BME280;60662;48.810;8.872;2023-08-17T13:33:07;96738.59;;;22.92;96.14
3697;BME280;60662;48.810;8.872;2023-08-17T13:36:10;96739.03;;;22.78;97.81
3697;BME280;60662;48.810;8.872;2023-08-17T13:39:14;96733.00;;;22.86;96.90
3697;BME280;60662;48.810;8.872;2023-08-17T13:42:17;96732.19;;;22.65;97.98
3697;BME280;60662;48.810;8.872;2023-08-17T13:45:21;96722.63;;;22.92;97.11
3697;BME280;60662;48.810;8.872;2023-08-17T13:48:28;96728.59;;;23.24;93.30
3697;BME280;60662;48.810;8.872;2023-08-17T13:51:32;96724.44;;;23.39;92.94
3697;BME280;60662;48.810;8.872;2023-08-17T13:54:45;96702.00;;;23.42;93.24
3697;BME280;60662;48.810;8.872;2023-08-17T13:55:47;96705.13;;;23.55;92.88
3697;BME280;60662;48.810;8.872;2023-08-17T13:58:59;96698.47;;;23.69;92.12
3697;BME280;60662;48.810;8.872;2023-08-17T14:00:01;96702.59;;;23.63;92.36
3697;BME280;60662;48.810;8.872;2023-08-17T14:01:03;96704.34;;;23.73;92.15
3697;BME280;60662;48.810;8.872;2023-08-17T14:02:04;96703.59;;;23.80;91.87
3697;BME280;60662;48.810;8.872;2023-08-17T14:03:06;96706.81;;;23.84;91.54
3697;BME280;60662;48.810;8.872;2023-08-17T14:04:08;96699.50;;;23.86;90.86
3697;BME280;60662;48.810;8.872;2023-08-17T14:05:16;96696.44;;;23.81;90.84
3697;BME280;60662;48.810;8.872;2023-08-17T14:06:18;96699.66;;;23.85;90.56
3697;BME280;60662;48.810;8.872;2023-08-17T14:07:19;96686.84;;;23.88;90.89
3697;BME280;60662;48.810;8.872;2023-08-17T14:08:21;96683.03;;;23.73;90.16
3697;BME280;60662;48.810;8.872;2023-08-17T14:09:22;96694.78;;;23.80;90.50
3697;BME280;60662;48.810;8.872;2023-08-17T14:10:24;96685.31;;;23.68;92.74
3697;BME280;60662;48.810;8.872;2023-08-17T14:11:40;96684.19;;;23.88;91.39